Strona główna
METAR-TAF:

METAR-TAF

Lotnisko :

Port lotniczy Asjut

Asjut, Egipt

Szerokość geograficzna: 27-03N, Długość geograficzna: 031-01E, wysokość: 226 m

Aktualna obserwacja pogody

Raport powstał 57 minut temu, godzina 06:00 UTC
Wiatr 7 kt od północny zachód
Temperatura 11°C
Wilgotność 62%
Ciśnienie 1019 hPa
Widzialność 10 km lub więcej
Brak chmur poniżej 1500 m i brak chmur cumulonimbus

METAR: HEAT 130600Z 32007KT CAVOK 11/04 Q1019 NOSIG

czas: 08:57 (06:57 UTC)

Prognoza

Raport powstał 1 godzina i 57 minut temu, godzina 05:00 UTC
Prognoza ważna od 13 godzina 06 UTC do 14 godzina 12 UTC
Wiatr 8 kt od północno-północny zachód
Widzialność 10 km lub więcej
Brak chmur poniżej 1500 m i brak chmur cumulonimbus
Przejściowo
od 13 godzina 06 UTC do 13 godzina 12 UTC
Widzialność: 3000 m
zmętnienie

TAF: HEAT 130500Z 1306/1412 33008KT CAVOK TEMPO 1306/1312 3000 HZ NSC

Obserwacja i prognoza pogody dla ponad 4000 lotnisk (raport METAR i TAF).

Dostępne stacje oznaczono żółtymi i czerwonymi punktami na mapie.

Najedź kursorem aby zobaczyć nazwę stacji.

Kliknij aby zobaczyć obserwacje i prognozy pogody.

Aby zmienić mapę: kliknij na zielony przycisk z czarnym krzyżykiem, aby powiększyć; na zielony przycisk z myślnikiem, aby pomniejszyć; na zielone strzałki, aby przejść do map sąsiednich.


METAR-TAF: